sensor_id;sensor_type;location;lat;lon;timestamp;pressure;altitude;pressure_sealevel;temperature;humidity
6345;BME280;3205;42.666;23.264;2023-05-14T00:01:40;94829.91;;;13.83;nan
6345;BME280;3205;42.666;23.264;2023-05-14T00:04:06;94812.66;;;13.77;nan
6345;BME280;3205;42.666;23.264;2023-05-14T00:06:32;94818.69;;;13.89;nan
6345;BME280;3205;42.666;23.264;2023-05-14T00:08:59;94828.28;;;13.94;nan
6345;BME280;3205;42.666;23.264;2023-05-14T00:11:25;94824.59;;;13.98;nan
6345;BME280;3205;42.666;23.264;2023-05-14T00:13:51;94815.25;;;14.04;nan
6345;BME280;3205;42.666;23.264;2023-05-14T00:16:17;94806.63;;;14.07;nan
6345;BME280;3205;42.666;23.264;2023-05-14T00:18:43;94802.41;;;14.06;nan
6345;BME280;3205;42.666;23.264;2023-05-14T00:21:09;94802.72;;;14.05;nan
6345;BME280;3205;42.666;23.264;2023-05-14T00:23:36;94796.75;;;13.92;nan
6345;BME280;3205;42.666;23.264;2023-05-14T00:26:02;94790.22;;;13.90;nan
6345;BME280;3205;42.666;23.264;2023-05-14T00:28:29;94788.69;;;13.89;nan
6345;BME280;3205;42.666;23.264;2023-05-14T00:30:55;94785.16;;;13.85;nan
6345;BME280;3205;42.666;23.264;2023-05-14T00:33:21;94782.75;;;13.80;nan
6345;BME280;3205;42.666;23.264;2023-05-14T00:35:47;94787.03;;;13.69;nan
6345;BME280;3205;42.666;23.264;2023-05-14T00:38:13;94793.19;;;13.57;nan
6345;BME280;3205;42.666;23.264;2023-05-14T00:40:43;94791.91;;;13.67;nan
6345;BME280;3205;42.666;23.264;2023-05-14T00:43:10;94792.00;;;13.70;nan
6345;BME280;3205;42.666;23.264;2023-05-14T00:45:37;94791.00;;;13.90;nan
6345;BME280;3205;42.666;23.264;2023-05-14T00:48:04;94789.44;;;14.05;nan
6345;BME280;3205;42.666;23.264;2023-05-14T00:50:30;94796.22;;;14.02;nan
6345;BME280;3205;42.666;23.264;2023-05-14T00:52:56;94792.19;;;14.08;nan
6345;BME280;3205;42.666;23.264;2023-05-14T00:55:22;94788.09;;;14.10;nan
6345;BME280;3205;42.666;23.264;2023-05-14T00:57:49;94781.34;;;14.13;nan
6345;BME280;3205;42.666;23.264;2023-05-14T01:00:16;94772.94;;;14.11;nan
6345;BME280;3205;42.666;23.264;2023-05-14T01:02:42;94777.28;;;14.04;nan
6345;BME280;3205;42.666;23.264;2023-05-14T01:05:08;94786.47;;;14.06;nan
6345;BME280;3205;42.666;23.264;2023-05-14T01:07:41;94787.34;;;14.10;nan
6345;BME280;3205;42.666;23.264;2023-05-14T01:10:16;94783.81;;;14.06;nan
6345;BME280;3205;42.666;23.264;2023-05-14T01:12:47;94781.81;;;14.03;nan
6345;BME280;3205;42.666;23.264;2023-05-14T01:15:20;94763.72;;;14.08;nan
6345;BME280;3205;42.666;23.264;2023-05-14T01:17:50;94774.94;;;14.02;nan
6345;BME280;3205;42.666;23.264;2023-05-14T01:20:17;94779.34;;;13.95;nan
6345;BME280;3205;42.666;23.264;2023-05-14T01:22:43;94789.88;;;13.91;nan
6345;BME280;3205;42.666;23.264;2023-05-14T01:25:09;94784.91;;;13.90;nan
6345;BME280;3205;42.666;23.264;2023-05-14T01:27:41;94797.16;;;13.94;nan
6345;BME280;3205;42.666;23.264;2023-05-14T01:30:14;94802.66;;;13.86;nan
6345;BME280;3205;42.666;23.264;2023-05-14T01:32:43;94807.59;;;13.87;nan
6345;BME280;3205;42.666;23.264;2023-05-14T01:35:11;94809.25;;;13.92;nan
6345;BME280;3205;42.666;23.264;2023-05-14T01:37:39;94807.97;;;14.01;nan
6345;BME280;3205;42.666;23.264;2023-05-14T01:40:09;94802.47;;;13.94;nan
6345;BME280;3205;42.666;23.264;2023-05-14T01:42:36;94814.66;;;13.95;nan
6345;BME280;3205;42.666;23.264;2023-05-14T01:45:03;94803.84;;;13.88;nan
6345;BME280;3205;42.666;23.264;2023-05-14T01:47:30;94807.13;;;13.97;nan
6345;BME280;3205;42.666;23.264;2023-05-14T01:49:56;94799.72;;;13.91;nan
6345;BME280;3205;42.666;23.264;2023-05-14T01:52:22;94802.03;;;13.77;nan
6345;BME280;3205;42.666;23.264;2023-05-14T01:54:48;94806.22;;;13.78;nan
6345;BME280;3205;42.666;23.264;2023-05-14T01:57:15;94812.84;;;13.84;nan
6345;BME280;3205;42.666;23.264;2023-05-14T01:59:41;94810.09;;;13.80;nan
6345;BME280;3205;42.666;23.264;2023-05-14T02:02:07;94804.19;;;13.71;nan
6345;BME280;3205;42.666;23.264;2023-05-14T02:04:33;94815.31;;;13.77;nan
6345;BME280;3205;42.666;23.264;2023-05-14T02:06:59;94815.13;;;13.70;nan
6345;BME280;3205;42.666;23.264;2023-05-14T02:09:25;94814.09;;;13.59;nan
6345;BME280;3205;42.666;23.264;2023-05-14T02:11:51;94816.84;;;13.62;nan
6345;BME280;3205;42.666;23.264;2023-05-14T02:14:18;94816.66;;;13.55;nan
6345;BME280;3205;42.666;23.264;2023-05-14T02:16:44;94815.13;;;13.54;nan
6345;BME280;3205;42.666;23.264;2023-05-14T02:19:10;94816.03;;;13.46;nan
6345;BME280;3205;42.666;23.264;2023-05-14T02:21:36;94819.56;;;13.50;nan
6345;BME280;3205;42.666;23.264;2023-05-14T02:24:02;94825.53;;;13.47;nan
6345;BME280;3205;42.666;23.264;2023-05-14T02:26:29;94829.91;;;13.40;nan
6345;BME280;3205;42.666;23.264;2023-05-14T02:28:55;94824.06;;;13.34;nan
6345;BME280;3205;42.666;23.264;2023-05-14T02:31:21;94821.50;;;13.38;nan
6345;BME280;3205;42.666;23.264;2023-05-14T02:33:47;94817.38;;;13.40;nan
6345;BME280;3205;42.666;23.264;2023-05-14T02:36:14;94819.72;;;13.42;nan
6345;BME280;3205;42.666;23.264;2023-05-14T02:38:40;94832.41;;;13.48;nan
6345;BME280;3205;42.666;23.264;2023-05-14T02:41:06;94839.94;;;13.46;nan
6345;BME280;3205;42.666;23.264;2023-05-14T02:43:32;94834.69;;;13.34;nan
6345;BME280;3205;42.666;23.264;2023-05-14T02:45:58;94845.94;;;13.43;nan
6345;BME280;3205;42.666;23.264;2023-05-14T02:48:25;94850.81;;;13.41;nan
6345;BME280;3205;42.666;23.264;2023-05-14T02:50:51;94853.72;;;13.36;nan
6345;BME280;3205;42.666;23.264;2023-05-14T02:53:17;94858.44;;;13.43;nan
6345;BME280;3205;42.666;23.264;2023-05-14T02:55:43;94850.16;;;13.32;nan
6345;BME280;3205;42.666;23.264;2023-05-14T02:58:09;94843.75;;;13.33;nan
6345;BME280;3205;42.666;23.264;2023-05-14T03:00:35;94844.44;;;13.31;nan
6345;BME280;3205;42.666;23.264;2023-05-14T03:03:01;94844.91;;;13.21;nan
6345;BME280;3205;42.666;23.264;2023-05-14T03:05:28;94855.63;;;13.24;nan
6345;BME280;3205;42.666;23.264;2023-05-14T03:07:54;94850.34;;;13.12;nan
6345;BME280;3205;42.666;23.264;2023-05-14T03:10:20;94833.09;;;13.18;nan
6345;BME280;3205;42.666;23.264;2023-05-14T03:12:46;94810.28;;;13.17;nan
6345;BME280;3205;42.666;23.264;2023-05-14T03:15:12;94822.72;;;13.13;nan
6345;BME280;3205;42.666;23.264;2023-05-14T03:17:39;94825.16;;;13.06;nan
6345;BME280;3205;42.666;23.264;2023-05-14T03:20:06;94834.22;;;13.05;nan
6345;BME280;3205;42.666;23.264;2023-05-14T03:22:32;94830.28;;;12.99;nan
6345;BME280;3205;42.666;23.264;2023-05-14T03:24:59;94822.88;;;12.93;nan
6345;BME280;3205;42.666;23.264;2023-05-14T03:27:25;94822.88;;;12.81;nan
6345;BME280;3205;42.666;23.264;2023-05-14T03:29:51;94825.88;;;12.79;nan
6345;BME280;3205;42.666;23.264;2023-05-14T03:32:17;94828.19;;;12.81;nan
6345;BME280;3205;42.666;23.264;2023-05-14T03:34:43;94831.19;;;12.79;nan
6345;BME280;3205;42.666;23.264;2023-05-14T03:37:10;94824.47;;;12.70;nan
6345;BME280;3205;42.666;23.264;2023-05-14T03:39:36;94821.91;;;12.73;nan
6345;BME280;3205;42.666;23.264;2023-05-14T03:42:03;94818.47;;;12.73;nan
6345;BME280;3205;42.666;23.264;2023-05-14T03:44:29;94814.59;;;12.70;nan
6345;BME280;3205;42.666;23.264;2023-05-14T03:46:56;94825.13;;;12.55;nan
6345;BME280;3205;42.666;23.264;2023-05-14T03:49:22;94815.50;;;12.62;nan
6345;BME280;3205;42.666;23.264;2023-05-14T03:51:48;94821.69;;;12.66;nan
6345;BME280;3205;42.666;23.264;2023-05-14T03:54:14;94828.66;;;12.71;nan
6345;BME280;3205;42.666;23.264;2023-05-14T03:56:40;94828.31;;;12.72;nan
6345;BME280;3205;42.666;23.264;2023-05-14T03:59:07;94825.56;;;12.69;nan
6345;BME280;3205;42.666;23.264;2023-05-14T04:01:33;94833.06;;;12.67;nan
6345;BME280;3205;42.666;23.264;2023-05-14T04:04:01;94827.09;;;12.70;nan
6345;BME280;3205;42.666;23.264;2023-05-14T04:06:27;94822.00;;;12.65;nan
6345;BME280;3205;42.666;23.264;2023-05-14T04:08:53;94833.28;;;12.74;nan
6345;BME280;3205;42.666;23.264;2023-05-14T04:11:19;94831.63;;;12.69;nan
6345;BME280;3205;42.666;23.264;2023-05-14T04:13:46;94838.13;;;12.72;nan
6345;BME280;3205;42.666;23.264;2023-05-14T04:16:12;94847.22;;;12.71;nan
6345;BME280;3205;42.666;23.264;2023-05-14T04:18:39;94847.34;;;12.74;nan
6345;BME280;3205;42.666;23.264;2023-05-14T04:21:05;94850.41;;;12.76;nan
6345;BME280;3205;42.666;23.264;2023-05-14T04:23:31;94853.94;;;12.80;nan
6345;BME280;3205;42.666;23.264;2023-05-14T04:25:57;94852.06;;;12.81;nan
6345;BME280;3205;42.666;23.264;2023-05-14T04:28:23;94854.72;;;12.81;nan
6345;BME280;3205;42.666;23.264;2023-05-14T04:30:50;94859.50;;;12.87;nan
6345;BME280;3205;42.666;23.264;2023-05-14T04:33:16;94864.47;;;12.89;nan
6345;BME280;3205;42.666;23.264;2023-05-14T04:35:43;94863.78;;;12.80;nan
6345;BME280;3205;42.666;23.264;2023-05-14T04:38:09;94878.03;;;12.75;nan
6345;BME280;3205;42.666;23.264;2023-05-14T04:40:36;94870.97;;;12.79;nan
6345;BME280;3205;42.666;23.264;2023-05-14T04:43:02;94874.41;;;12.68;nan
6345;BME280;3205;42.666;23.264;2023-05-14T04:45:28;94877.16;;;12.71;nan
6345;BME280;3205;42.666;23.264;2023-05-14T04:47:55;94866.00;;;12.66;nan
6345;BME280;3205;42.666;23.264;2023-05-14T04:50:21;94886.88;;;12.79;nan
6345;BME280;3205;42.666;23.264;2023-05-14T04:52:47;94888.97;;;12.74;nan
6345;BME280;3205;42.666;23.264;2023-05-14T04:55:13;94892.63;;;12.69;nan
6345;BME280;3205;42.666;23.264;2023-05-14T04:57:39;94897.63;;;12.71;nan
6345;BME280;3205;42.666;23.264;2023-05-14T05:00:07;94901.56;;;12.65;nan
6345;BME280;3205;42.666;23.264;2023-05-14T05:02:34;94904.78;;;12.70;nan
6345;BME280;3205;42.666;23.264;2023-05-14T05:05:01;94897.84;;;12.78;nan
6345;BME280;3205;42.666;23.264;2023-05-14T05:07:28;94881.81;;;12.74;nan
6345;BME280;3205;42.666;23.264;2023-05-14T05:09:54;94881.03;;;12.74;nan
6345;BME280;3205;42.666;23.264;2023-05-14T05:12:20;94878.50;;;12.65;nan
6345;BME280;3205;42.666;23.264;2023-05-14T05:14:46;94878.38;;;12.62;nan
6345;BME280;3205;42.666;23.264;2023-05-14T05:17:13;94868.66;;;12.66;nan
6345;BME280;3205;42.666;23.264;2023-05-14T05:19:39;94871.19;;;12.62;nan
6345;BME280;3205;42.666;23.264;2023-05-14T05:22:06;94870.78;;;12.60;nan
6345;BME280;3205;42.666;23.264;2023-05-14T05:24:32;94870.09;;;12.63;nan
6345;BME280;3205;42.666;23.264;2023-05-14T05:26:59;94866.69;;;12.63;nan
6345;BME280;3205;42.666;23.264;2023-05-14T05:29:25;94862.47;;;12.62;nan
6345;BME280;3205;42.666;23.264;2023-05-14T05:31:51;94863.25;;;12.62;nan
6345;BME280;3205;42.666;23.264;2023-05-14T05:34:17;94874.53;;;12.59;nan
6345;BME280;3205;42.666;23.264;2023-05-14T05:36:45;94864.56;;;12.57;nan
6345;BME280;3205;42.666;23.264;2023-05-14T05:39:11;94861.25;;;12.59;nan
6345;BME280;3205;42.666;23.264;2023-05-14T05:41:38;94867.78;;;12.50;nan
6345;BME280;3205;42.666;23.264;2023-05-14T05:44:04;94872.19;;;12.34;nan
6345;BME280;3205;42.666;23.264;2023-05-14T05:46:30;94881.47;;;12.40;nan
6345;BME280;3205;42.666;23.264;2023-05-14T05:48:56;94883.00;;;12.17;nan
6345;BME280;3205;42.666;23.264;2023-05-14T05:51:22;94887.31;;;12.10;nan
6345;BME280;3205;42.666;23.264;2023-05-14T05:53:48;94892.81;;;12.05;nan
6345;BME280;3205;42.666;23.264;2023-05-14T05:56:15;94880.78;;;11.95;nan
6345;BME280;3205;42.666;23.264;2023-05-14T05:58:41;94870.44;;;11.50;nan
6345;BME280;3205;42.666;23.264;2023-05-14T06:01:07;94864.47;;;11.41;nan
6345;BME280;3205;42.666;23.264;2023-05-14T06:03:33;94867.91;;;11.01;nan
6345;BME280;3205;42.666;23.264;2023-05-14T06:06:00;94861.00;;;10.88;nan
6345;BME280;3205;42.666;23.264;2023-05-14T06:08:26;94868.19;;;10.58;nan
6345;BME280;3205;42.666;23.264;2023-05-14T06:10:52;94858.22;;;10.64;nan
6345;BME280;3205;42.666;23.264;2023-05-14T06:13:19;94855.66;;;10.47;nan
6345;BME280;3205;42.666;23.264;2023-05-14T06:15:45;94858.50;;;10.42;nan
6345;BME280;3205;42.666;23.264;2023-05-14T06:18:11;94854.94;;;10.67;nan
6345;BME280;3205;42.666;23.264;2023-05-14T06:20:37;94846.31;;;10.49;nan
6345;BME280;3205;42.666;23.264;2023-05-14T06:23:04;94839.50;;;10.48;nan
6345;BME280;3205;42.666;23.264;2023-05-14T06:25:32;94834.00;;;10.33;nan
6345;BME280;3205;42.666;23.264;2023-05-14T06:27:58;94852.16;;;10.34;nan
6345;BME280;3205;42.666;23.264;2023-05-14T06:30:25;94854.13;;;10.46;nan
6345;BME280;3205;42.666;23.264;2023-05-14T06:32:51;94861.09;;;10.50;nan
6345;BME280;3205;42.666;23.264;2023-05-14T06:35:17;94863.31;;;10.40;nan
6345;BME280;3205;42.666;23.264;2023-05-14T06:37:43;94859.53;;;10.49;nan
6345;BME280;3205;42.666;23.264;2023-05-14T06:40:10;94852.56;;;10.45;nan
6345;BME280;3205;42.666;23.264;2023-05-14T06:42:37;94848.94;;;10.29;nan
6345;BME280;3205;42.666;23.264;2023-05-14T06:45:03;94852.16;;;10.34;nan
6345;BME280;3205;42.666;23.264;2023-05-14T06:47:30;94845.63;;;10.40;nan
6345;BME280;3205;42.666;23.264;2023-05-14T06:49:56;94836.63;;;10.33;nan
6345;BME280;3205;42.666;23.264;2023-05-14T06:52:23;94837.03;;;10.15;nan
6345;BME280;3205;42.666;23.264;2023-05-14T06:54:49;94837.13;;;9.98;nan
6345;BME280;3205;42.666;23.264;2023-05-14T06:57:15;94822.88;;;9.73;nan
6345;BME280;3205;42.666;23.264;2023-05-14T06:59:41;94829.56;;;9.71;nan
6345;BME280;3205;42.666;23.264;2023-05-14T07:02:07;94821.81;;;9.74;nan
6345;BME280;3205;42.666;23.264;2023-05-14T07:04:34;94822.19;;;10.02;nan
6345;BME280;3205;42.666;23.264;2023-05-14T07:07:01;94827.75;;;10.09;nan
6345;BME280;3205;42.666;23.264;2023-05-14T07:09:27;94841.91;;;9.96;nan
6345;BME280;3205;42.666;23.264;2023-05-14T07:11:53;94842.22;;;9.94;nan
6345;BME280;3205;42.666;23.264;2023-05-14T07:14:19;94850.78;;;10.00;nan
6345;BME280;3205;42.666;23.264;2023-05-14T07:16:45;94867.06;;;10.10;nan
6345;BME280;3205;42.666;23.264;2023-05-14T07:19:11;94874.44;;;10.25;nan
6345;BME280;3205;42.666;23.264;2023-05-14T07:21:38;94876.94;;;10.22;nan
6345;BME280;3205;42.666;23.264;2023-05-14T07:24:05;94861.59;;;10.15;nan
6345;BME280;3205;42.666;23.264;2023-05-14T07:26:31;94862.22;;;10.12;nan
6345;BME280;3205;42.666;23.264;2023-05-14T07:28:57;94861.88;;;10.22;nan
6345;BME280;3205;42.666;23.264;2023-05-14T07:31:23;94853.13;;;10.30;nan
6345;BME280;3205;42.666;23.264;2023-05-14T07:33:49;94852.00;;;10.31;nan
6345;BME280;3205;42.666;23.264;2023-05-14T07:36:15;94858.00;;;10.48;nan
6345;BME280;3205;42.666;23.264;2023-05-14T07:38:42;94854.84;;;10.55;nan
6345;BME280;3205;42.666;23.264;2023-05-14T07:41:08;94852.53;;;10.53;nan
6345;BME280;3205;42.666;23.264;2023-05-14T07:43:35;94863.81;;;10.62;nan
6345;BME280;3205;42.666;23.264;2023-05-14T07:46:03;94865.41;;;10.84;nan
6345;BME280;3205;42.666;23.264;2023-05-14T07:48:29;94868.50;;;11.06;nan
6345;BME280;3205;42.666;23.264;2023-05-14T07:50:55;94864.16;;;11.02;nan
6345;BME280;3205;42.666;23.264;2023-05-14T07:53:21;94878.66;;;10.75;nan
6345;BME280;3205;42.666;23.264;2023-05-14T07:55:48;94875.34;;;10.58;nan
6345;BME280;3205;42.666;23.264;2023-05-14T07:58:14;94875.25;;;10.46;nan
6345;BME280;3205;42.666;23.264;2023-05-14T08:00:41;94870.78;;;10.67;nan
6345;BME280;3205;42.666;23.264;2023-05-14T08:03:07;94875.84;;;10.80;nan
6345;BME280;3205;42.666;23.264;2023-05-14T08:05:33;94877.00;;;10.91;nan
6345;BME280;3205;42.666;23.264;2023-05-14T08:07:59;94881.66;;;10.94;nan
6345;BME280;3205;42.666;23.264;2023-05-14T08:10:26;94872.38;;;10.88;nan
6345;BME280;3205;42.666;23.264;2023-05-14T08:12:52;94865.97;;;10.69;nan
6345;BME280;3205;42.666;23.264;2023-05-14T08:15:19;94852.16;;;10.63;nan
6345;BME280;3205;42.666;23.264;2023-05-14T08:17:45;94849.56;;;10.55;nan
6345;BME280;3205;42.666;23.264;2023-05-14T08:20:11;94861.09;;;10.50;nan
6345;BME280;3205;42.666;23.264;2023-05-14T08:22:37;94852.75;;;10.69;nan
6345;BME280;3205;42.666;23.264;2023-05-14T08:25:04;94844.94;;;10.72;nan
6345;BME280;3205;42.666;23.264;2023-05-14T08:27:31;94842.63;;;10.71;nan
6345;BME280;3205;42.666;23.264;2023-05-14T08:29:57;94842.56;;;10.79;nan
6345;BME280;3205;42.666;23.264;2023-05-14T08:32:24;94841.28;;;10.85;nan
6345;BME280;3205;42.666;23.264;2023-05-14T08:34:50;94849.53;;;10.84;nan
6345;BME280;3205;42.666;23.264;2023-05-14T08:37:16;94842.25;;;10.32;nan
6345;BME280;3205;42.666;23.264;2023-05-14T08:39:42;94837.97;;;10.47;nan
6345;BME280;3205;42.666;23.264;2023-05-14T08:42:11;94831.66;;;10.60;nan
6345;BME280;3205;42.666;23.264;2023-05-14T08:44:41;94829.72;;;10.69;nan
6345;BME280;3205;42.666;23.264;2023-05-14T08:47:14;94814.25;;;10.80;nan
6345;BME280;3205;42.666;23.264;2023-05-14T08:49:42;94829.56;;;11.07;nan
6345;BME280;3205;42.666;23.264;2023-05-14T08:52:10;94842.56;;;11.20;nan
6345;BME280;3205;42.666;23.264;2023-05-14T08:54:36;94829.78;;;11.22;nan
6345;BME280;3205;42.666;23.264;2023-05-14T08:57:02;94818.78;;;11.32;nan
6345;BME280;3205;42.666;23.264;2023-05-14T08:59:29;94826.16;;;11.06;nan
6345;BME280;3205;42.666;23.264;2023-05-14T09:01:55;94828.75;;;11.14;nan
6345;BME280;3205;42.666;23.264;2023-05-14T09:04:24;94830.81;;;10.89;nan
6345;BME280;3205;42.666;23.264;2023-05-14T09:06:52;94835.47;;;10.92;nan
6345;BME280;3205;42.666;23.264;2023-05-14T09:09:19;94834.69;;;10.71;nan
6345;BME280;3205;42.666;23.264;2023-05-14T09:11:47;94828.81;;;10.65;nan
6345;BME280;3205;42.666;23.264;2023-05-14T09:14:13;94816.34;;;10.66;nan
6345;BME280;3205;42.666;23.264;2023-05-14T09:16:40;94830.63;;;10.73;nan
6345;BME280;3205;42.666;23.264;2023-05-14T09:19:09;94825.25;;;11.02;nan
6345;BME280;3205;42.666;23.264;2023-05-14T09:21:36;94825.47;;;11.17;nan
6345;BME280;3205;42.666;23.264;2023-05-14T09:24:02;94840.94;;;11.07;nan
6345;BME280;3205;42.666;23.264;2023-05-14T09:26:30;94826.75;;;10.91;nan
6345;BME280;3205;42.666;23.264;2023-05-14T09:28:58;94807.03;;;10.89;nan
6345;BME280;3205;42.666;23.264;2023-05-14T09:31:26;94807.91;;;10.93;nan
6345;BME280;3205;42.666;23.264;2023-05-14T09:33:52;94820.16;;;10.97;nan
6345;BME280;3205;42.666;23.264;2023-05-14T09:36:18;94812.81;;;11.03;nan
6345;BME280;3205;42.666;23.264;2023-05-14T09:38:45;94816.59;;;11.13;nan
6345;BME280;3205;42.666;23.264;2023-05-14T09:41:11;94810.38;;;11.30;nan
6345;BME280;3205;42.666;23.264;2023-05-14T09:43:38;94810.72;;;11.28;nan
6345;BME280;3205;42.666;23.264;2023-05-14T09:46:04;94802.16;;;11.43;nan
6345;BME280;3205;42.666;23.264;2023-05-14T09:48:30;94794.31;;;11.35;nan
6345;BME280;3205;42.666;23.264;2023-05-14T09:50:58;94805.22;;;11.33;nan
6345;BME280;3205;42.666;23.264;2023-05-14T09:53:24;94806.63;;;11.31;nan
6345;BME280;3205;42.666;23.264;2023-05-14T09:55:51;94801.59;;;11.38;nan
6345;BME280;3205;42.666;23.264;2023-05-14T09:58:17;94802.41;;;11.18;nan
6345;BME280;3205;42.666;23.264;2023-05-14T10:00:44;94805.72;;;11.15;nan
6345;BME280;3205;42.666;23.264;2023-05-14T10:03:12;94801.03;;;11.00;nan
6345;BME280;3205;42.666;23.264;2023-05-14T10:05:40;94784.44;;;10.91;nan
6345;BME280;3205;42.666;23.264;2023-05-14T10:08:10;94783.13;;;10.97;nan
6345;BME280;3205;42.666;23.264;2023-05-14T10:10:38;94774.16;;;11.10;nan
6345;BME280;3205;42.666;23.264;2023-05-14T10:13:10;94781.78;;;10.91;nan
6345;BME280;3205;42.666;23.264;2023-05-14T10:15:40;94771.81;;;10.97;nan
6345;BME280;3205;42.666;23.264;2023-05-14T10:18:09;94754.50;;;10.99;nan
6345;BME280;3205;42.666;23.264;2023-05-14T10:20:37;94749.69;;;10.81;nan
6345;BME280;3205;42.666;23.264;2023-05-14T10:23:05;94753.78;;;10.90;nan
6345;BME280;3205;42.666;23.264;2023-05-14T10:25:32;94771.31;;;11.15;nan
6345;BME280;3205;42.666;23.264;2023-05-14T10:27:58;94773.66;;;11.28;nan
6345;BME280;3205;42.666;23.264;2023-05-14T10:30:26;94770.28;;;11.40;nan
6345;BME280;3205;42.666;23.264;2023-05-14T10:33:05;94777.28;;;11.24;nan
6345;BME280;3205;42.666;23.264;2023-05-14T10:35:50;94760.97;;;10.90;nan
6345;BME280;3205;42.666;23.264;2023-05-14T10:38:21;94779.78;;;11.08;nan
6345;BME280;3205;42.666;23.264;2023-05-14T10:40:48;94769.31;;;11.12;nan
6345;BME280;3205;42.666;23.264;2023-05-14T10:43:15;94763.16;;;11.20;nan
6345;BME280;3205;42.666;23.264;2023-05-14T10:45:43;94750.41;;;11.22;nan
6345;BME280;3205;42.666;23.264;2023-05-14T10:48:10;94761.53;;;11.39;nan
6345;BME280;3205;42.666;23.264;2023-05-14T10:50:37;94758.72;;;11.44;nan
6345;BME280;3205;42.666;23.264;2023-05-14T10:53:03;94761.47;;;11.48;nan
6345;BME280;3205;42.666;23.264;2023-05-14T10:55:30;94744.50;;;11.49;nan
6345;BME280;3205;42.666;23.264;2023-05-14T10:57:57;94752.16;;;11.30;nan
6345;BME280;3205;42.666;23.264;2023-05-14T11:00:25;94756.75;;;11.53;nan
6345;BME280;3205;42.666;23.264;2023-05-14T11:02:55;94751.63;;;11.69;nan
6345;BME280;3205;42.666;23.264;2023-05-14T11:05:21;94757.81;;;11.96;nan
6345;BME280;3205;42.666;23.264;2023-05-14T11:07:48;94762.44;;;12.23;nan
6345;BME280;3205;42.666;23.264;2023-05-14T11:10:16;94763.97;;;12.36;nan
6345;BME280;3205;42.666;23.264;2023-05-14T11:12:43;94754.13;;;12.37;nan
6345;BME280;3205;42.666;23.264;2023-05-14T11:15:10;94762.00;;;12.21;nan
6345;BME280;3205;42.666;23.264;2023-05-14T11:17:39;94758.31;;;12.14;nan
6345;BME280;3205;42.666;23.264;2023-05-14T11:20:07;94753.91;;;12.30;nan
6345;BME280;3205;42.666;23.264;2023-05-14T11:22:33;94760.84;;;12.46;nan
6345;BME280;3205;42.666;23.264;2023-05-14T11:25:00;94757.97;;;12.39;nan
6345;BME280;3205;42.666;23.264;2023-05-14T11:27:26;94748.69;;;12.45;nan
6345;BME280;3205;42.666;23.264;2023-05-14T11:29:52;94752.63;;;12.63;nan
6345;BME280;3205;42.666;23.264;2023-05-14T11:32:20;94744.09;;;12.30;nan
6345;BME280;3205;42.666;23.264;2023-05-14T11:34:46;94750.25;;;12.34;nan
6345;BME280;3205;42.666;23.264;2023-05-14T11:37:15;94766.44;;;12.57;nan
6345;BME280;3205;42.666;23.264;2023-05-14T11:39:46;94747.19;;;12.71;nan
6345;BME280;3205;42.666;23.264;2023-05-14T11:42:12;94741.53;;;12.85;nan
6345;BME280;3205;42.666;23.264;2023-05-14T11:44:41;94735.41;;;12.96;nan
6345;BME280;3205;42.666;23.264;2023-05-14T11:47:09;94728.75;;;13.02;nan
6345;BME280;3205;42.666;23.264;2023-05-14T11:49:35;94729.88;;;13.01;nan
6345;BME280;3205;42.666;23.264;2023-05-14T11:52:03;94740.81;;;13.00;nan
6345;BME280;3205;42.666;23.264;2023-05-14T11:54:31;94738.03;;;13.08;nan
6345;BME280;3205;42.666;23.264;2023-05-14T11:56:59;94731.94;;;13.08;nan
6345;BME280;3205;42.666;23.264;2023-05-14T11:59:26;94743.72;;;12.95;nan
6345;BME280;3205;42.666;23.264;2023-05-14T12:01:53;94731.44;;;12.90;nan
6345;BME280;3205;42.666;23.264;2023-05-14T12:04:20;94734.75;;;12.99;nan
6345;BME280;3205;42.666;23.264;2023-05-14T12:06:47;94731.78;;;13.16;nan
6345;BME280;3205;42.666;23.264;2023-05-14T12:09:15;94718.13;;;13.02;nan
6345;BME280;3205;42.666;23.264;2023-05-14T12:11:42;94716.75;;;12.81;nan
6345;BME280;3205;42.666;23.264;2023-05-14T12:14:14;94717.25;;;12.71;nan
6345;BME280;3205;42.666;23.264;2023-05-14T12:16:44;94704.19;;;12.78;nan
6345;BME280;3205;42.666;23.264;2023-05-14T12:19:13;94707.94;;;12.77;nan
6345;BME280;3205;42.666;23.264;2023-05-14T12:21:41;94687.19;;;12.67;nan
6345;BME280;3205;42.666;23.264;2023-05-14T12:24:08;94692.59;;;12.70;nan
6345;BME280;3205;42.666;23.264;2023-05-14T12:26:35;94682.63;;;13.07;nan
6345;BME280;3205;42.666;23.264;2023-05-14T12:29:04;94688.81;;;13.26;nan
6345;BME280;3205;42.666;23.264;2023-05-14T12:31:32;94681.97;;;13.40;nan
6345;BME280;3205;42.666;23.264;2023-05-14T12:33:58;94697.53;;;13.27;nan
6345;BME280;3205;42.666;23.264;2023-05-14T12:36:25;94687.78;;;13.15;nan
6345;BME280;3205;42.666;23.264;2023-05-14T12:38:57;94689.34;;;13.32;nan
6345;BME280;3205;42.666;23.264;2023-05-14T12:41:23;94682.63;;;13.07;nan
6345;BME280;3205;42.666;23.264;2023-05-14T12:43:49;94676.56;;;13.22;nan
6345;BME280;3205;42.666;23.264;2023-05-14T12:46:16;94678.72;;;13.32;nan
6345;BME280;3205;42.666;23.264;2023-05-14T12:48:42;94676.06;;;13.62;nan
6345;BME280;3205;42.666;23.264;2023-05-14T12:51:08;94669.72;;;13.51;nan
6345;BME280;3205;42.666;23.264;2023-05-14T12:53:34;94668.84;;;13.47;nan
6345;BME280;3205;42.666;23.264;2023-05-14T12:56:01;94665.94;;;13.68;nan
6345;BME280;3205;42.666;23.264;2023-05-14T12:58:27;94691.13;;;13.43;nan
6345;BME280;3205;42.666;23.264;2023-05-14T13:00:53;94676.34;;;13.42;nan
6345;BME280;3205;42.666;23.264;2023-05-14T13:03:20;94691.09;;;13.12;nan
6345;BME280;3205;42.666;23.264;2023-05-14T13:05:46;94689.16;;;13.25;nan
6345;BME280;3205;42.666;23.264;2023-05-14T13:08:12;94679.78;;;13.00;nan
6345;BME280;3205;42.666;23.264;2023-05-14T13:10:42;94677.66;;;12.78;nan
6345;BME280;3205;42.666;23.264;2023-05-14T13:13:08;94673.28;;;12.58;nan
6345;BME280;3205;42.666;23.264;2023-05-14T13:15:35;94668.13;;;12.50;nan
6345;BME280;3205;42.666;23.264;2023-05-14T13:18:01;94665.59;;;12.53;nan
6345;BME280;3205;42.666;23.264;2023-05-14T13:20:29;94654.41;;;12.59;nan
6345;BME280;3205;42.666;23.264;2023-05-14T13:22:55;94642.81;;;12.64;nan
6345;BME280;3205;42.666;23.264;2023-05-14T13:25:22;94646.69;;;12.82;nan
6345;BME280;3205;42.666;23.264;2023-05-14T13:27:48;94649.91;;;12.87;nan
6345;BME280;3205;42.666;23.264;2023-05-14T13:30:15;94661.66;;;13.17;nan